KMCI/MCI METAR and TAF weather

Enter ICAO airport designator
Station Type Date Time Source
KMCI METAR 2024/04/18 05:53 UTC NOAA

KMCI 180553Z 33010KT 7SM -TSRA OVC080CB 16/10 A2991 RMK AO2 LTG DSNT ALQDS RAB34 TSB09 SLP121 CONS LTGICCGCCCA OHD TS OHD MOV NE P0000 60000 T01610100 10239 20161 402560128 55004


Station Type Date Time Source
KMCI Decoded METAR 2024/04/18 05:53 UTC NOAA

KANSAS CITY INTERNATIONAL AIRPORT, MO, United States (KMCI) 39-18N 94-44W 320M
Apr 18, 2024 - 01:53 AM EDT / 2024.04.18 0553 UTC
Wind: from the NNW (330 degrees) at 12 MPH (10 KT):0
Visibility: 7 mile(s):0
Sky conditions: overcast
Weather: light rain with thunder; Cumulonimbus clouds, lightning observed
Precipitation last hour: A trace
Temperature: 61.0 F (16.1 C)
Dew Point: 50.0 F (10.0 C)
Relative Humidity: 67%
Pressure (altimeter): 29.91 in. Hg (1012 hPa)
Pressure tendency: 0.01 inches (0.4 hPa) lower than three hours ago
ob: KMCI 180553Z 33010KT 7SM -TSRA OVC080CB 16/10 A2991 RMK AO2 LTG DSNT ALQDS RAB34 TSB09 SLP121 CONS LTGICCGCCCA OHD TS OHD MOV NE P0000 60000 T01610100 10239 20161 402560128 55004
cycle: 6

Station Type Date Time Source
KMCI TAF 2024/04/18 06:30 UTC NOAA